createdAt,value
2022-12-01T00:35:49.018Z,35.30
2022-12-01T00:38:15.484Z,36.47
2022-12-01T00:40:42.668Z,35.30
2022-12-01T00:43:09.028Z,36.30
2022-12-01T00:45:35.388Z,36.95
2022-12-01T00:48:01.808Z,39.38
2022-12-01T00:50:28.229Z,39.15
2022-12-01T00:52:54.598Z,43.97
2022-12-01T00:55:20.949Z,39.22
2022-12-01T00:57:47.350Z,39.30
2022-12-01T01:00:14.471Z,37.10
2022-12-01T01:02:40.875Z,39.20
2022-12-01T01:05:07.753Z,37.45
2022-12-01T01:07:34.185Z,38.72
2022-12-01T01:10:00.646Z,37.90
2022-12-01T01:12:27.957Z,41.15
2022-12-01T01:14:54.326Z,36.95
2022-12-01T01:17:20.799Z,41.65
2022-12-01T01:19:47.502Z,77.30
2022-12-01T01:22:14.159Z,40.83
2022-12-01T01:24:40.574Z,44.22
2022-12-01T01:27:06.978Z,57.65
2022-12-01T01:29:33.403Z,43.92
2022-12-01T01:31:59.767Z,58.72
2022-12-01T01:34:26.177Z,171.43
2022-12-01T01:36:52.547Z,125.28
2022-12-01T01:39:18.983Z,56.58
2022-12-01T01:41:45.392Z,48.55
2022-12-01T01:44:45.784Z,62.10
2022-12-01T01:47:13.224Z,75.70
2022-12-01T01:49:41.176Z,39.08
2022-12-01T01:52:07.600Z,101.75
2022-12-01T01:54:39.550Z,50.45
2022-12-01T01:57:09.576Z,67.65
2022-12-01T01:59:45.125Z,46.97
2022-12-01T02:02:12.818Z,43.95
2022-12-01T02:04:47.137Z,47.78
2022-12-01T02:07:17.432Z,37.78
2022-12-01T02:09:44.080Z,37.40
2022-12-01T02:12:25.836Z,36.97
2022-12-01T02:15:17.901Z,41.55
2022-12-01T02:18:04.510Z,42.28
2022-12-01T02:20:39.961Z,42.13
2022-12-01T02:23:30.345Z,54.10
2022-12-01T02:26:31.937Z,51.25
2022-12-01T02:29:25.869Z,34.55
2022-12-01T02:31:59.640Z,37.13
2022-12-01T02:34:34.634Z,39.90
2022-12-01T02:37:32.666Z,38.17
2022-12-01T02:40:03.626Z,39.45
2022-12-01T02:42:50.398Z,42.10
2022-12-01T02:45:42.894Z,44.67
2022-12-01T02:48:20.627Z,42.25
2022-12-01T02:50:47.938Z,42.70
2022-12-01T02:53:17.184Z,43.83
2022-12-01T02:55:52.792Z,41.45
2022-12-01T02:58:19.687Z,45.30
2022-12-01T03:01:10.628Z,53.47
2022-12-01T03:03:52.295Z,54.38
2022-12-01T03:06:23.672Z,50.50
2022-12-01T03:09:09.217Z,54.42
2022-12-01T03:11:43.485Z,48.38
2022-12-01T03:14:33.008Z,52.65
2022-12-01T03:17:08.268Z,55.30
2022-12-01T03:19:44.268Z,64.65
2022-12-01T03:22:16.444Z,60.90
2022-12-01T03:24:48.344Z,73.22
2022-12-01T03:27:20.842Z,88.25
2022-12-01T03:29:51.744Z,65.78
2022-12-01T03:32:24.792Z,56.47
2022-12-01T03:37:41.094Z,49.90
2022-12-01T03:40:11.909Z,58.55
2022-12-01T03:42:46.281Z,59.92
2022-12-01T03:45:19.559Z,53.15
2022-12-01T03:47:46.029Z,53.50
2022-12-01T03:50:14.145Z,60.40
2022-12-01T03:52:47.920Z,56.80
2022-12-01T03:55:32.057Z,61.22
2022-12-01T03:58:08.841Z,58.83
2022-12-01T04:00:35.666Z,71.63
2022-12-01T04:03:04.124Z,80.10
2022-12-01T04:05:32.448Z,75.18
2022-12-01T04:07:59.318Z,65.80
2022-12-01T04:10:25.994Z,77.60
2022-12-01T04:12:58.855Z,64.75
2022-12-01T04:15:27.362Z,54.63
2022-12-01T04:17:54.198Z,70.22
2022-12-01T04:20:21.610Z,57.58
2022-12-01T04:22:48.564Z,61.17
2022-12-01T04:25:15.122Z,69.45
2022-12-01T04:27:41.456Z,61.13
2022-12-01T04:30:08.499Z,64.20
2022-12-01T04:32:39.724Z,76.68
2022-12-01T04:35:07.807Z,92.78
2022-12-01T04:37:34.808Z,65.80
2022-12-01T04:40:01.204Z,98.28
2022-12-01T04:42:27.589Z,64.22
2022-12-01T04:44:53.940Z,81.13
2022-12-01T04:47:20.313Z,130.13
2022-12-01T04:49:46.915Z,74.18
2022-12-01T04:52:13.588Z,76.43
2022-12-01T04:54:40.116Z,102.13
2022-12-01T04:57:06.542Z,65.57
2022-12-01T04:59:32.965Z,59.90
2022-12-01T05:01:59.434Z,58.38
2022-12-01T05:04:26.025Z,70.43
2022-12-01T05:06:55.574Z,63.50
2022-12-01T05:09:21.997Z,69.88
2022-12-01T05:11:48.386Z,69.20
2022-12-01T05:14:14.746Z,55.95
2022-12-01T05:16:41.338Z,78.53
2022-12-01T05:19:26.111Z,67.75
2022-12-01T05:21:52.742Z,71.90
2022-12-01T05:24:20.062Z,61.80
2022-12-01T05:26:46.586Z,70.07
2022-12-01T05:29:13.367Z,67.65
2022-12-01T05:31:40.222Z,70.70
2022-12-01T05:34:07.583Z,54.50
2022-12-01T05:36:34.083Z,66.80
2022-12-01T05:39:00.523Z,77.80
2022-12-01T05:41:26.965Z,71.82
2022-12-01T05:43:53.340Z,87.75
2022-12-01T05:46:19.807Z,81.05
2022-12-01T05:48:47.157Z,73.45
2022-12-01T05:51:16.111Z,88.20
2022-12-01T05:53:43.254Z,68.47
2022-12-01T05:56:09.948Z,61.55
2022-12-01T05:58:36.819Z,76.85
2022-12-01T06:01:03.400Z,62.53
2022-12-01T06:03:29.751Z,61.15
2022-12-01T06:05:56.359Z,69.47
2022-12-01T06:08:23.004Z,57.22
2022-12-01T06:10:49.425Z,62.47
2022-12-01T06:13:15.940Z,60.95
2022-12-01T06:15:42.508Z,67.85
2022-12-01T06:18:09.149Z,71.80
2022-12-01T06:20:35.549Z,70.60
2022-12-01T06:23:01.873Z,61.20
2022-12-01T06:25:28.242Z,83.03
2022-12-01T06:27:58.483Z,62.72
2022-12-01T06:30:25.802Z,78.07
2022-12-01T06:32:52.199Z,81.38
2022-12-01T06:35:18.645Z,76.93
2022-12-01T06:37:45.010Z,62.20
2022-12-01T06:40:11.941Z,87.57
2022-12-01T06:42:38.644Z,59.75
2022-12-01T06:45:05.501Z,58.53
2022-12-01T06:47:31.917Z,98.32
2022-12-01T06:49:58.260Z,74.75
2022-12-01T06:52:24.633Z,62.08
2022-12-01T06:54:51.063Z,54.05
2022-12-01T06:57:17.827Z,56.58
2022-12-01T06:59:44.374Z,66.07
2022-12-01T07:02:11.773Z,54.30
2022-12-01T07:04:38.240Z,52.95
2022-12-01T07:07:05.885Z,54.03
2022-12-01T07:09:32.260Z,76.45
2022-12-01T07:11:58.592Z,47.80
2022-12-01T07:14:26.670Z,51.10
2022-12-01T07:16:53.459Z,52.83
2022-12-01T07:19:19.968Z,47.33
2022-12-01T07:21:46.281Z,45.20
2022-12-01T07:24:12.678Z,49.90
2022-12-01T07:26:40.200Z,44.08
2022-12-01T07:29:07.033Z,49.88
2022-12-01T07:31:33.411Z,51.75
2022-12-01T07:33:59.866Z,42.60
2022-12-01T07:36:26.252Z,61.72
2022-12-01T07:38:52.595Z,65.55
2022-12-01T07:41:19.410Z,66.20
2022-12-01T07:43:46.412Z,62.33
2022-12-01T07:46:21.754Z,46.92
2022-12-01T07:48:49.359Z,76.47
2022-12-01T07:51:16.846Z,41.58
2022-12-01T07:53:47.482Z,43.08
2022-12-01T07:56:14.181Z,44.40
2022-12-01T07:58:40.706Z,47.50
2022-12-01T08:01:19.342Z,45.90
2022-12-01T08:03:48.153Z,41.75
2022-12-01T08:06:14.510Z,44.47
2022-12-01T08:08:41.586Z,50.72
2022-12-01T08:11:12.163Z,49.40
2022-12-01T08:13:39.516Z,56.47
2022-12-01T08:16:07.956Z,53.60
2022-12-01T08:18:39.359Z,56.55
2022-12-01T08:21:07.424Z,63.90
2022-12-01T08:23:34.270Z,63.25
2022-12-01T08:26:05.450Z,65.03
2022-12-01T08:28:32.215Z,61.33
2022-12-01T08:30:58.571Z,62.97
2022-12-01T08:33:24.979Z,62.53
2022-12-01T08:35:51.696Z,64.35
2022-12-01T08:38:18.352Z,59.17
2022-12-01T08:40:44.712Z,63.60
2022-12-01T08:43:23.082Z,65.55
2022-12-01T08:46:00.382Z,58.45
2022-12-01T08:48:29.832Z,58.40
2022-12-01T08:51:03.500Z,61.63
2022-12-01T08:53:30.773Z,59.45
2022-12-01T08:56:02.293Z,62.35
2022-12-01T08:58:29.260Z,65.93
2022-12-01T09:01:03.733Z,67.15
2022-12-01T09:03:31.020Z,63.92
2022-12-01T09:06:05.979Z,58.55
2022-12-01T09:08:33.977Z,63.67
2022-12-01T09:11:02.077Z,65.47
2022-12-01T09:13:29.565Z,69.50
2022-12-01T09:15:58.619Z,62.42
2022-12-01T09:18:25.586Z,56.97
2022-12-01T09:20:52.685Z,60.65
2022-12-01T09:23:19.321Z,61.33
2022-12-01T09:25:45.784Z,58.88
2022-12-01T09:28:12.147Z,61.70
2022-12-01T09:30:38.552Z,58.08
2022-12-01T09:33:05.060Z,68.97
2022-12-01T09:35:32.224Z,62.58
2022-12-01T09:37:58.889Z,65.32
2022-12-01T09:40:31.521Z,64.70
2022-12-01T09:43:02.711Z,63.90
2022-12-01T09:45:33.519Z,62.72
2022-12-01T09:48:02.684Z,65.32
2022-12-01T09:50:30.794Z,63.58
2022-12-01T09:53:02.197Z,65.15
2022-12-01T09:55:31.400Z,66.00
2022-12-01T09:57:59.964Z,62.50
2022-12-01T10:00:30.414Z,62.78
2022-12-01T10:03:09.695Z,63.30
2022-12-01T10:09:18.083Z,61.05
2022-12-01T10:11:46.826Z,67.00
2022-12-01T10:14:20.033Z,63.83
2022-12-01T10:17:03.813Z,67.88
2022-12-01T10:22:23.830Z,59.35
2022-12-01T10:25:10.407Z,62.88
2022-12-01T10:28:05.908Z,67.47
2022-12-01T10:30:39.172Z,66.50
2022-12-01T10:33:19.995Z,68.70
2022-12-01T10:35:46.547Z,73.97
2022-12-01T10:38:22.556Z,74.30
2022-12-01T10:40:50.790Z,68.00
2022-12-01T10:43:17.226Z,61.05
2022-12-01T10:45:44.649Z,69.82
2022-12-01T10:48:22.172Z,59.42
2022-12-01T10:50:53.636Z,70.35
2022-12-01T10:53:26.772Z,66.47
2022-12-01T10:56:04.566Z,68.00
2022-12-01T10:58:34.123Z,73.13
2022-12-01T11:01:05.898Z,71.28
2022-12-01T11:03:35.730Z,73.00
2022-12-01T11:06:04.606Z,71.50
2022-12-01T11:08:40.706Z,71.88
2022-12-01T11:11:22.727Z,76.55
2022-12-01T11:13:49.184Z,73.95
2022-12-01T11:16:36.270Z,75.18
2022-12-01T11:19:34.383Z,78.20
2022-12-01T11:22:25.754Z,73.05
2022-12-01T11:24:55.235Z,71.22
2022-12-01T11:27:27.680Z,76.15
2022-12-01T11:30:02.734Z,71.90
2022-12-01T11:32:32.386Z,77.00
2022-12-01T11:35:00.496Z,76.43
2022-12-01T11:37:37.908Z,77.82
2022-12-01T11:40:20.510Z,74.97
2022-12-01T11:42:52.489Z,74.60
2022-12-01T11:45:18.992Z,77.03
2022-12-01T11:48:03.402Z,79.18
2022-12-01T11:50:32.541Z,81.70
2022-12-01T11:52:59.033Z,69.82
2022-12-01T11:55:28.003Z,75.65
2022-12-01T11:58:01.643Z,71.90
2022-12-01T12:00:40.985Z,71.18
2022-12-01T12:03:40.868Z,71.65
2022-12-01T12:06:39.818Z,71.53
2022-12-01T12:09:35.162Z,74.65
2022-12-01T12:12:24.225Z,73.05
2022-12-01T12:15:07.673Z,72.35
2022-12-01T12:17:43.268Z,71.60
2022-12-01T12:20:31.823Z,74.38
2022-12-01T12:23:19.467Z,74.13
2022-12-01T12:26:10.761Z,77.20
2022-12-01T12:28:56.885Z,72.90
2022-12-01T12:31:23.247Z,80.10
2022-12-01T12:34:22.722Z,74.93
2022-12-01T12:36:58.834Z,74.72
2022-12-01T12:39:52.949Z,73.03
2022-12-01T12:42:36.012Z,76.47
2022-12-01T12:45:16.898Z,74.07
2022-12-01T12:48:11.194Z,71.60
2022-12-01T12:50:40.707Z,71.15
2022-12-01T12:53:21.238Z,76.30
2022-12-01T12:55:56.651Z,74.00
2022-12-01T12:58:35.612Z,71.18
2022-12-01T13:01:22.201Z,83.07
2022-12-01T13:04:18.418Z,74.00
2022-12-01T13:06:55.875Z,71.35
2022-12-01T13:09:53.728Z,80.55
2022-12-01T13:12:31.662Z,73.72
2022-12-01T13:15:13.428Z,70.78
2022-12-01T13:17:43.634Z,73.53
2022-12-01T13:20:20.569Z,73.72
2022-12-01T13:22:47.948Z,74.55
2022-12-01T13:25:17.518Z,77.20
2022-12-01T13:27:45.558Z,72.32
2022-12-01T13:30:22.455Z,74.47
2022-12-01T13:32:49.626Z,79.40
2022-12-01T13:35:18.993Z,73.88
2022-12-01T13:37:45.299Z,78.20
2022-12-01T13:40:31.264Z,81.22
2022-12-01T13:43:08.627Z,75.80
2022-12-01T13:45:38.170Z,75.90
2022-12-01T13:48:06.411Z,70.38
2022-12-01T13:50:43.520Z,76.38
2022-12-01T13:53:14.635Z,75.75
2022-12-01T13:55:59.770Z,77.30
2022-12-01T13:58:32.556Z,71.93
2022-12-01T14:01:21.098Z,80.00
2022-12-01T14:04:00.975Z,78.40
2022-12-01T14:06:30.857Z,74.20
2022-12-01T14:09:26.319Z,77.22
2022-12-01T14:12:03.187Z,72.13
2022-12-01T14:14:39.087Z,72.55
2022-12-01T14:17:05.919Z,73.28
2022-12-01T14:19:52.713Z,72.22
2022-12-01T14:22:43.981Z,72.03
2022-12-01T14:25:19.518Z,68.40
2022-12-01T14:27:47.894Z,68.55
2022-12-01T14:30:39.126Z,69.63
2022-12-01T14:33:39.607Z,59.90
2022-12-01T14:36:34.150Z,62.33
2022-12-01T14:39:03.653Z,65.78
2022-12-01T14:41:51.994Z,70.15
2022-12-01T14:44:31.431Z,63.13
2022-12-01T14:47:17.804Z,63.15
2022-12-01T14:50:05.976Z,64.70
2022-12-01T14:52:37.134Z,66.22
2022-12-01T14:55:12.322Z,65.22
2022-12-01T14:57:43.982Z,67.68
2022-12-01T15:00:24.602Z,73.75
2022-12-01T15:02:56.726Z,66.38
2022-12-01T15:05:27.194Z,67.10
2022-12-01T15:08:02.439Z,63.78
2022-12-01T15:10:51.175Z,60.90
2022-12-01T15:13:24.636Z,64.63
2022-12-01T15:15:53.719Z,66.78
2022-12-01T15:18:32.370Z,63.35
2022-12-01T15:21:05.209Z,59.92
2022-12-01T15:23:31.637Z,58.42
2022-12-01T15:25:58.434Z,60.45
2022-12-01T15:28:35.897Z,58.67
2022-12-01T15:31:09.734Z,63.28
2022-12-01T15:33:38.933Z,56.90
2022-12-01T15:36:07.502Z,59.78
2022-12-01T15:38:37.763Z,60.45
2022-12-01T15:41:28.540Z,56.35
2022-12-01T15:44:05.379Z,52.45
2022-12-01T15:46:34.407Z,56.92
2022-12-01T15:49:19.743Z,57.65
2022-12-01T15:51:48.298Z,59.35
2022-12-01T15:54:21.308Z,60.75
2022-12-01T15:59:27.415Z,51.10
2022-12-01T16:01:54.097Z,51.92
2022-12-01T16:04:24.018Z,59.38
2022-12-01T16:07:04.751Z,56.67
2022-12-01T16:09:31.060Z,57.97
2022-12-01T16:12:23.060Z,60.53
2022-12-01T16:15:03.258Z,58.30
2022-12-01T16:17:51.477Z,53.58
2022-12-01T16:20:35.417Z,59.30
2022-12-01T16:23:09.029Z,55.97
2022-12-01T16:25:38.017Z,58.13
2022-12-01T16:28:06.365Z,56.45
2022-12-01T16:30:38.558Z,53.10
2022-12-01T16:33:38.026Z,55.80
2022-12-01T16:36:04.585Z,48.38
2022-12-01T16:38:31.169Z,54.60
2022-12-01T16:41:02.316Z,52.55
2022-12-01T16:43:29.241Z,52.92
2022-12-01T16:46:03.694Z,49.92
2022-12-01T16:48:31.128Z,52.17
2022-12-01T16:51:02.460Z,53.63
2022-12-01T16:53:28.782Z,57.08
2022-12-01T16:56:00.754Z,56.92
2022-12-01T16:58:27.737Z,57.22
2022-12-01T17:00:54.608Z,51.35
2022-12-01T17:03:24.163Z,57.22
2022-12-01T17:05:51.627Z,56.03
2022-12-01T17:08:18.136Z,59.58
2022-12-01T17:10:46.795Z,56.97
2022-12-01T17:13:13.726Z,48.28
2022-12-01T17:15:41.927Z,50.50
2022-12-01T17:18:09.147Z,52.72
2022-12-01T17:20:35.516Z,50.72
2022-12-01T17:23:01.988Z,42.83
2022-12-01T17:25:28.468Z,49.00
2022-12-01T17:27:54.884Z,49.55
2022-12-01T17:30:21.212Z,47.13
2022-12-01T17:32:47.610Z,49.17
2022-12-01T17:35:14.110Z,52.88
2022-12-01T17:37:40.547Z,53.65
2022-12-01T17:40:10.318Z,51.55
2022-12-01T17:42:36.937Z,46.30
2022-12-01T17:45:13.637Z,50.58
2022-12-01T17:47:40.157Z,49.75
2022-12-01T17:50:07.326Z,48.47
2022-12-01T17:52:33.850Z,51.38
2022-12-01T17:55:00.461Z,53.25
2022-12-01T17:57:26.928Z,48.17
2022-12-01T17:59:53.439Z,53.10
2022-12-01T18:02:19.937Z,50.38
2022-12-01T18:04:46.521Z,52.72
2022-12-01T18:07:13.490Z,53.30
2022-12-01T18:09:39.981Z,50.75
2022-12-01T18:12:06.547Z,53.05
2022-12-01T18:14:34.573Z,52.80
2022-12-01T18:17:01.070Z,57.95
2022-12-01T18:19:27.587Z,54.92
2022-12-01T18:21:54.044Z,54.95
2022-12-01T18:24:20.523Z,56.03
2022-12-01T18:26:47.071Z,54.72
2022-12-01T18:29:18.402Z,56.13
2022-12-01T18:31:45.863Z,57.05
2022-12-01T18:34:12.448Z,53.00
2022-12-01T18:36:40.807Z,49.10
2022-12-01T18:39:09.230Z,49.70
2022-12-01T18:41:36.595Z,52.25
2022-12-01T18:44:03.660Z,56.10
2022-12-01T18:46:30.225Z,53.15
2022-12-01T18:49:04.671Z,50.10
2022-12-01T18:51:33.579Z,47.42
2022-12-01T18:54:01.852Z,52.55
2022-12-01T18:56:29.533Z,50.63
2022-12-01T18:59:01.712Z,55.60
2022-12-01T19:01:32.212Z,53.58
2022-12-01T19:04:00.041Z,52.00
2022-12-01T19:06:28.079Z,55.25
2022-12-01T19:08:55.244Z,51.08
2022-12-01T19:11:22.197Z,52.15
2022-12-01T19:13:48.727Z,49.28
2022-12-01T19:16:17.653Z,48.85
2022-12-01T19:18:45.085Z,52.25
2022-12-01T19:21:14.373Z,48.42
2022-12-01T19:23:41.229Z,49.65
2022-12-01T19:26:13.105Z,55.55
2022-12-01T19:28:42.122Z,49.17
2022-12-01T19:31:11.156Z,54.65
2022-12-01T19:33:38.170Z,50.75
2022-12-01T19:36:10.790Z,49.92
2022-12-01T19:38:37.545Z,54.30
2022-12-01T19:41:05.257Z,54.17
2022-12-01T19:43:33.978Z,53.75
2022-12-01T19:46:06.742Z,57.35
2022-12-01T19:48:33.449Z,57.08
2022-12-01T19:51:00.153Z,51.97
2022-12-01T19:53:31.866Z,53.83
2022-12-01T19:56:02.016Z,52.95
2022-12-01T19:58:28.599Z,53.53
2022-12-01T20:00:55.202Z,53.05
2022-12-01T20:03:21.738Z,54.35
2022-12-01T20:05:48.208Z,58.83
2022-12-01T20:08:14.596Z,57.47
2022-12-01T20:11:01.387Z,54.42
2022-12-01T20:13:28.432Z,50.15
2022-12-01T20:15:54.905Z,60.17
2022-12-01T20:18:21.387Z,54.65
2022-12-01T20:20:48.124Z,50.95
2022-12-01T20:23:14.597Z,53.28
2022-12-01T20:25:41.101Z,52.72
2022-12-01T20:28:07.574Z,56.42
2022-12-01T20:30:33.985Z,51.65
2022-12-01T20:33:00.459Z,53.13
2022-12-01T20:35:27.016Z,50.78
2022-12-01T20:37:53.601Z,50.25
2022-12-01T20:40:20.189Z,46.75
2022-12-01T20:42:46.641Z,48.97
2022-12-01T20:45:13.159Z,49.20
2022-12-01T20:47:40.339Z,46.97
2022-12-01T20:50:07.170Z,47.63
2022-12-01T20:52:33.640Z,46.42
2022-12-01T20:55:00.200Z,47.72
2022-12-01T20:57:27.910Z,42.15
2022-12-01T20:59:54.333Z,45.92
2022-12-01T21:02:20.854Z,46.40
2022-12-01T21:04:47.514Z,48.08
2022-12-01T21:07:14.062Z,49.28
2022-12-01T21:09:40.588Z,47.88
2022-12-01T21:12:33.473Z,43.88
2022-12-01T21:15:08.829Z,44.33
2022-12-01T21:17:45.530Z,44.00
2022-12-01T21:20:31.673Z,46.67
2022-12-01T21:23:02.381Z,45.90
2022-12-01T21:25:28.866Z,51.22
2022-12-01T21:28:01.035Z,44.05
2022-12-01T21:30:29.743Z,35.55
2022-12-01T21:33:15.953Z,50.40
2022-12-01T21:35:42.656Z,46.00
2022-12-01T21:38:16.512Z,49.28
2022-12-01T21:40:46.657Z,45.28
2022-12-01T21:43:24.386Z,47.53
2022-12-01T21:46:06.759Z,49.30
2022-12-01T21:48:36.473Z,46.88
2022-12-01T21:51:12.756Z,47.80
2022-12-01T21:53:39.657Z,46.95
2022-12-01T21:56:19.573Z,48.75
2022-12-01T21:58:46.345Z,49.20
2022-12-01T22:01:30.748Z,46.80
2022-12-01T22:04:02.340Z,49.40
2022-12-01T22:06:37.648Z,54.85
2022-12-01T22:09:24.562Z,50.58
2022-12-01T22:12:12.414Z,51.10
2022-12-01T22:14:39.549Z,50.58
2022-12-01T22:17:05.973Z,50.75
2022-12-01T22:19:38.287Z,49.05
2022-12-01T22:22:11.047Z,56.97
2022-12-01T22:24:43.456Z,53.83
2022-12-01T22:27:27.219Z,57.30
2022-12-01T22:30:10.673Z,50.05
2022-12-01T22:32:49.298Z,54.95
2022-12-01T22:35:15.745Z,53.00
2022-12-01T22:37:48.051Z,53.35
2022-12-01T22:40:33.579Z,56.58
2022-12-01T22:43:15.594Z,52.63
2022-12-01T22:45:49.249Z,49.20
2022-12-01T22:48:25.724Z,52.22
2022-12-01T22:50:52.280Z,55.80
2022-12-01T22:53:23.587Z,57.33
2022-12-01T22:55:55.020Z,49.67
2022-12-01T22:58:26.168Z,55.78
2022-12-01T23:00:54.400Z,52.13
2022-12-01T23:03:20.978Z,52.90
2022-12-01T23:05:53.388Z,57.05
2022-12-01T23:08:22.338Z,57.55
2022-12-01T23:10:49.317Z,54.65
2022-12-01T23:13:20.585Z,55.97
2022-12-01T23:15:50.603Z,53.60
2022-12-01T23:18:29.496Z,59.17
2022-12-01T23:21:04.964Z,54.45
2022-12-01T23:23:33.753Z,55.15
2022-12-01T23:26:06.109Z,57.67
2022-12-01T23:28:35.598Z,59.65
2022-12-01T23:31:02.167Z,49.88
2022-12-01T23:33:31.661Z,54.53
2022-12-01T23:36:20.405Z,52.95
2022-12-01T23:38:50.179Z,52.38
2022-12-01T23:41:33.586Z,51.22
2022-12-01T23:44:21.327Z,51.13
2022-12-01T23:46:50.829Z,55.22
2022-12-01T23:49:22.307Z,48.90
2022-12-01T23:51:52.848Z,51.72
2022-12-01T23:54:28.960Z,53.90
2022-12-01T23:57:01.372Z,56.22
2022-12-01T23:59:29.835Z,56.83
